sensor_id;sensor_type;location;lat;lon;timestamp;temperature;humidity
9383;DHT22;4731;49.708;10.816;2022-12-10T00:00:07;-4.00;99.90
9383;DHT22;4731;49.708;10.816;2022-12-10T00:02:35;-4.00;99.90
9383;DHT22;4731;49.708;10.816;2022-12-10T00:05:02;-4.00;99.90
9383;DHT22;4731;49.708;10.816;2022-12-10T00:07:29;-3.90;99.90
9383;DHT22;4731;49.708;10.816;2022-12-10T00:09:55;-4.00;99.90
9383;DHT22;4731;49.708;10.816;2022-12-10T00:12:22;-4.00;99.90
9383;DHT22;4731;49.708;10.816;2022-12-10T00:14:49;-4.10;99.90
9383;DHT22;4731;49.708;10.816;2022-12-10T00:17:16;-4.20;99.90
9383;DHT22;4731;49.708;10.816;2022-12-10T00:19:44;-4.20;99.90
9383;DHT22;4731;49.708;10.816;2022-12-10T00:22:18;-4.10;99.90
9383;DHT22;4731;49.708;10.816;2022-12-10T00:24:44;-4.20;99.90
9383;DHT22;4731;49.708;10.816;2022-12-10T00:27:12;-4.20;99.90
9383;DHT22;4731;49.708;10.816;2022-12-10T00:29:39;-4.30;99.90
9383;DHT22;4731;49.708;10.816;2022-12-10T00:32:06;-4.20;99.90
9383;DHT22;4731;49.708;10.816;2022-12-10T00:34:33;-3.00;99.90
9383;DHT22;4731;49.708;10.816;2022-12-10T00:37:02;-4.30;99.90
9383;DHT22;4731;49.708;10.816;2022-12-10T00:39:30;-4.40;99.90
9383;DHT22;4731;49.708;10.816;2022-12-10T00:41:57;-4.50;99.90
9383;DHT22;4731;49.708;10.816;2022-12-10T00:46:51;-4.50;99.90
9383;DHT22;4731;49.708;10.816;2022-12-10T00:49:17;-4.50;99.90
9383;DHT22;4731;49.708;10.816;2022-12-10T00:51:48;-4.60;99.90
9383;DHT22;4731;49.708;10.816;2022-12-10T00:54:16;-4.60;99.90
9383;DHT22;4731;49.708;10.816;2022-12-10T00:56:43;-4.60;99.90
9383;DHT22;4731;49.708;10.816;2022-12-10T00:59:10;-4.60;99.90
9383;DHT22;4731;49.708;10.816;2022-12-10T01:01:39;-4.70;99.90
9383;DHT22;4731;49.708;10.816;2022-12-10T01:04:08;-4.70;99.90
9383;DHT22;4731;49.708;10.816;2022-12-10T01:06:41;-4.70;99.90
9383;DHT22;4731;49.708;10.816;2022-12-10T01:09:11;-4.70;99.90
9383;DHT22;4731;49.708;10.816;2022-12-10T01:11:41;-4.60;99.90
9383;DHT22;4731;49.708;10.816;2022-12-10T01:14:11;-4.60;99.90
9383;DHT22;4731;49.708;10.816;2022-12-10T01:16:38;-4.60;99.90
9383;DHT22;4731;49.708;10.816;2022-12-10T01:19:05;-4.60;99.90
9383;DHT22;4731;49.708;10.816;2022-12-10T01:21:32;-4.60;99.90
9383;DHT22;4731;49.708;10.816;2022-12-10T01:23:59;-4.60;99.90
9383;DHT22;4731;49.708;10.816;2022-12-10T01:26:28;-4.60;99.90
9383;DHT22;4731;49.708;10.816;2022-12-10T01:28:57;-4.60;99.90
9383;DHT22;4731;49.708;10.816;2022-12-10T01:31:25;-4.70;99.90
9383;DHT22;4731;49.708;10.816;2022-12-10T01:33:52;-4.70;99.90
9383;DHT22;4731;49.708;10.816;2022-12-10T01:36:23;-4.70;99.90
9383;DHT22;4731;49.708;10.816;2022-12-10T01:38:51;-4.70;99.90
9383;DHT22;4731;49.708;10.816;2022-12-10T01:41:20;-4.70;99.90
9383;DHT22;4731;49.708;10.816;2022-12-10T01:43:51;-4.70;99.90
9383;DHT22;4731;49.708;10.816;2022-12-10T01:46:21;-4.80;99.90
9383;DHT22;4731;49.708;10.816;2022-12-10T01:48:49;-4.70;99.90
9383;DHT22;4731;49.708;10.816;2022-12-10T01:51:17;-4.80;99.90
9383;DHT22;4731;49.708;10.816;2022-12-10T01:53:44;-4.80;99.90
9383;DHT22;4731;49.708;10.816;2022-12-10T01:56:12;-4.90;99.90
9383;DHT22;4731;49.708;10.816;2022-12-10T01:58:40;-4.90;99.90
9383;DHT22;4731;49.708;10.816;2022-12-10T02:01:11;-4.90;99.90
9383;DHT22;4731;49.708;10.816;2022-12-10T02:03:51;-4.90;99.90
9383;DHT22;4731;49.708;10.816;2022-12-10T02:06:28;-4.90;99.90
9383;DHT22;4731;49.708;10.816;2022-12-10T02:09:03;-5.00;99.90
9383;DHT22;4731;49.708;10.816;2022-12-10T02:11:35;-5.10;99.90
9383;DHT22;4731;49.708;10.816;2022-12-10T02:14:06;-5.10;99.90
9383;DHT22;4731;49.708;10.816;2022-12-10T02:16:39;-5.10;99.90
9383;DHT22;4731;49.708;10.816;2022-12-10T02:19:16;-5.10;99.90
9383;DHT22;4731;49.708;10.816;2022-12-10T02:21:46;-5.10;99.90
9383;DHT22;4731;49.708;10.816;2022-12-10T02:24:18;-5.10;99.90
9383;DHT22;4731;49.708;10.816;2022-12-10T02:26:51;-5.20;99.90
9383;DHT22;4731;49.708;10.816;2022-12-10T02:29:26;-5.20;99.90
9383;DHT22;4731;49.708;10.816;2022-12-10T02:31:55;-5.20;99.90
9383;DHT22;4731;49.708;10.816;2022-12-10T02:34:24;-5.20;99.90
9383;DHT22;4731;49.708;10.816;2022-12-10T02:36:54;-5.20;99.90
9383;DHT22;4731;49.708;10.816;2022-12-10T02:39:26;-5.30;99.90
9383;DHT22;4731;49.708;10.816;2022-12-10T02:41:55;-5.20;99.90
9383;DHT22;4731;49.708;10.816;2022-12-10T02:44:26;-5.30;99.90
9383;DHT22;4731;49.708;10.816;2022-12-10T02:46:56;-5.20;99.90
9383;DHT22;4731;49.708;10.816;2022-12-10T02:49:25;-5.20;99.90
9383;DHT22;4731;49.708;10.816;2022-12-10T02:51:53;-5.20;99.90
9383;DHT22;4731;49.708;10.816;2022-12-10T02:54:35;-5.20;99.90
9383;DHT22;4731;49.708;10.816;2022-12-10T02:57:12;-5.20;99.90
9383;DHT22;4731;49.708;10.816;2022-12-10T02:59:51;-5.20;99.90
9383;DHT22;4731;49.708;10.816;2022-12-10T03:02:29;-5.20;99.90
9383;DHT22;4731;49.708;10.816;2022-12-10T03:05:02;-5.10;99.90
9383;DHT22;4731;49.708;10.816;2022-12-10T03:07:34;-5.10;99.90
9383;DHT22;4731;49.708;10.816;2022-12-10T03:10:06;-5.10;99.90
9383;DHT22;4731;49.708;10.816;2022-12-10T03:12:38;-5.10;99.90
9383;DHT22;4731;49.708;10.816;2022-12-10T03:15:09;-5.10;99.90
9383;DHT22;4731;49.708;10.816;2022-12-10T03:17:38;-4.90;99.90
9383;DHT22;4731;49.708;10.816;2022-12-10T03:20:07;-5.00;99.90
9383;DHT22;4731;49.708;10.816;2022-12-10T03:22:37;-5.00;99.90
9383;DHT22;4731;49.708;10.816;2022-12-10T03:25:06;-5.10;99.90
9383;DHT22;4731;49.708;10.816;2022-12-10T03:27:34;-5.00;99.90
9383;DHT22;4731;49.708;10.816;2022-12-10T03:30:03;-5.10;99.90
9383;DHT22;4731;49.708;10.816;2022-12-10T03:32:32;-5.10;99.90
9383;DHT22;4731;49.708;10.816;2022-12-10T03:34:59;-5.20;99.90
9383;DHT22;4731;49.708;10.816;2022-12-10T03:37:27;-5.20;99.90
9383;DHT22;4731;49.708;10.816;2022-12-10T03:39:55;-4.60;99.90
9383;DHT22;4731;49.708;10.816;2022-12-10T03:42:22;-5.20;99.90
9383;DHT22;4731;49.708;10.816;2022-12-10T03:44:50;-5.20;99.90
9383;DHT22;4731;49.708;10.816;2022-12-10T03:47:18;-5.20;99.90
9383;DHT22;4731;49.708;10.816;2022-12-10T03:49:46;-5.20;99.90
9383;DHT22;4731;49.708;10.816;2022-12-10T03:52:12;-5.20;99.90
9383;DHT22;4731;49.708;10.816;2022-12-10T03:54:40;-5.20;99.90
9383;DHT22;4731;49.708;10.816;2022-12-10T03:57:06;-5.10;99.90
9383;DHT22;4731;49.708;10.816;2022-12-10T03:59:33;-5.20;99.90
9383;DHT22;4731;49.708;10.816;2022-12-10T04:02:00;-5.20;99.90
9383;DHT22;4731;49.708;10.816;2022-12-10T04:04:27;-5.30;99.90
9383;DHT22;4731;49.708;10.816;2022-12-10T04:06:55;-5.30;99.90
9383;DHT22;4731;49.708;10.816;2022-12-10T04:09:22;-5.30;99.90
9383;DHT22;4731;49.708;10.816;2022-12-10T04:11:48;-5.40;99.90
9383;DHT22;4731;49.708;10.816;2022-12-10T04:14:15;-5.30;99.90
9383;DHT22;4731;49.708;10.816;2022-12-10T04:17:00;-5.30;99.90
9383;DHT22;4731;49.708;10.816;2022-12-10T04:19:27;-5.30;99.90
9383;DHT22;4731;49.708;10.816;2022-12-10T04:24:39;-5.50;99.90
9383;DHT22;4731;49.708;10.816;2022-12-10T04:27:25;-5.50;99.90
9383;DHT22;4731;49.708;10.816;2022-12-10T04:32:48;-5.80;99.90
9383;DHT22;4731;49.708;10.816;2022-12-10T04:35:15;-5.50;99.90
9383;DHT22;4731;49.708;10.816;2022-12-10T04:37:44;-5.40;99.90
9383;DHT22;4731;49.708;10.816;2022-12-10T04:40:11;-5.40;99.90
9383;DHT22;4731;49.708;10.816;2022-12-10T04:42:38;-5.40;99.90
9383;DHT22;4731;49.708;10.816;2022-12-10T04:47:32;-3.90;99.90
9383;DHT22;4731;49.708;10.816;2022-12-10T04:49:59;-4.90;99.90
9383;DHT22;4731;49.708;10.816;2022-12-10T04:52:26;-4.90;99.90
9383;DHT22;4731;49.708;10.816;2022-12-10T04:54:54;-5.00;99.90
9383;DHT22;4731;49.708;10.816;2022-12-10T04:57:23;-3.50;99.90
9383;DHT22;4731;49.708;10.816;2022-12-10T04:59:50;-5.00;99.90
9383;DHT22;4731;49.708;10.816;2022-12-10T05:02:16;-5.00;99.90
9383;DHT22;4731;49.708;10.816;2022-12-10T05:04:43;-4.90;99.90
9383;DHT22;4731;49.708;10.816;2022-12-10T05:07:10;-3.10;99.90
9383;DHT22;4731;49.708;10.816;2022-12-10T05:09:37;-4.90;99.90
9383;DHT22;4731;49.708;10.816;2022-12-10T05:12:06;-4.80;99.90
9383;DHT22;4731;49.708;10.816;2022-12-10T05:14:33;-2.70;99.90
9383;DHT22;4731;49.708;10.816;2022-12-10T05:16:59;-4.60;99.90
9383;DHT22;4731;49.708;10.816;2022-12-10T05:19:26;-4.60;99.90
9383;DHT22;4731;49.708;10.816;2022-12-10T05:21:53;-4.60;99.90
9383;DHT22;4731;49.708;10.816;2022-12-10T05:24:38;-4.50;99.90
9383;DHT22;4731;49.708;10.816;2022-12-10T05:27:06;-4.30;99.90
9383;DHT22;4731;49.708;10.816;2022-12-10T05:29:33;-4.30;99.90
9383;DHT22;4731;49.708;10.816;2022-12-10T05:32:00;-4.40;99.90
9383;DHT22;4731;49.708;10.816;2022-12-10T05:34:27;-4.40;99.90
9383;DHT22;4731;49.708;10.816;2022-12-10T05:36:54;-4.50;99.90
9383;DHT22;4731;49.708;10.816;2022-12-10T05:39:21;-4.50;99.90
9383;DHT22;4731;49.708;10.816;2022-12-10T05:41:48;-4.50;99.90
9383;DHT22;4731;49.708;10.816;2022-12-10T05:44:16;-4.50;99.90
9383;DHT22;4731;49.708;10.816;2022-12-10T05:46:43;-4.50;99.90
9383;DHT22;4731;49.708;10.816;2022-12-10T05:49:10;-4.40;99.90
9383;DHT22;4731;49.708;10.816;2022-12-10T05:51:37;-4.50;99.90
9383;DHT22;4731;49.708;10.816;2022-12-10T05:54:06;-4.50;99.90
9383;DHT22;4731;49.708;10.816;2022-12-10T05:56:35;-4.50;99.90
9383;DHT22;4731;49.708;10.816;2022-12-10T05:59:03;-4.50;99.90
9383;DHT22;4731;49.708;10.816;2022-12-10T06:01:33;-4.60;99.90
9383;DHT22;4731;49.708;10.816;2022-12-10T06:04:03;-4.60;99.90
9383;DHT22;4731;49.708;10.816;2022-12-10T06:06:31;-4.60;99.90
9383;DHT22;4731;49.708;10.816;2022-12-10T06:08:59;-4.50;99.90
9383;DHT22;4731;49.708;10.816;2022-12-10T06:11:26;-4.50;99.90
9383;DHT22;4731;49.708;10.816;2022-12-10T06:13:54;-4.50;99.90
9383;DHT22;4731;49.708;10.816;2022-12-10T06:16:21;-4.50;99.90
9383;DHT22;4731;49.708;10.816;2022-12-10T06:18:50;-4.00;99.90
9383;DHT22;4731;49.708;10.816;2022-12-10T06:21:18;-4.60;99.90
9383;DHT22;4731;49.708;10.816;2022-12-10T06:23:48;-4.60;99.90
9383;DHT22;4731;49.708;10.816;2022-12-10T06:26:19;-4.60;99.90
9383;DHT22;4731;49.708;10.816;2022-12-10T06:28:47;-4.60;99.90
9383;DHT22;4731;49.708;10.816;2022-12-10T06:31:15;-4.70;99.90
9383;DHT22;4731;49.708;10.816;2022-12-10T06:33:42;-4.70;99.90
9383;DHT22;4731;49.708;10.816;2022-12-10T06:36:13;-2.50;99.90
9383;DHT22;4731;49.708;10.816;2022-12-10T06:38:41;-4.70;99.90
9383;DHT22;4731;49.708;10.816;2022-12-10T06:41:11;-4.60;99.90
9383;DHT22;4731;49.708;10.816;2022-12-10T06:43:40;-4.60;99.90
9383;DHT22;4731;49.708;10.816;2022-12-10T06:46:08;-4.60;99.90
9383;DHT22;4731;49.708;10.816;2022-12-10T06:48:35;-4.60;99.90
9383;DHT22;4731;49.708;10.816;2022-12-10T06:51:03;-4.70;99.90
9383;DHT22;4731;49.708;10.816;2022-12-10T06:53:32;-4.30;99.90
9383;DHT22;4731;49.708;10.816;2022-12-10T06:56:01;-4.60;99.90
9383;DHT22;4731;49.708;10.816;2022-12-10T06:58:31;-4.60;99.90
9383;DHT22;4731;49.708;10.816;2022-12-10T07:01:03;-4.60;99.90
9383;DHT22;4731;49.708;10.816;2022-12-10T07:03:33;-3.00;99.90
9383;DHT22;4731;49.708;10.816;2022-12-10T07:06:03;-4.50;99.90
9383;DHT22;4731;49.708;10.816;2022-12-10T07:08:32;-6.00;99.90
9383;DHT22;4731;49.708;10.816;2022-12-10T07:11:03;-4.20;99.90
9383;DHT22;4731;49.708;10.816;2022-12-10T07:13:31;-4.20;99.90
9383;DHT22;4731;49.708;10.816;2022-12-10T07:15:58;-4.20;99.90
9383;DHT22;4731;49.708;10.816;2022-12-10T07:18:25;-4.20;99.90
9383;DHT22;4731;49.708;10.816;2022-12-10T07:20:52;-4.10;99.90
9383;DHT22;4731;49.708;10.816;2022-12-10T07:23:20;-4.00;99.90
9383;DHT22;4731;49.708;10.816;2022-12-10T07:25:48;-4.00;99.90
9383;DHT22;4731;49.708;10.816;2022-12-10T07:28:15;-3.90;99.90
9383;DHT22;4731;49.708;10.816;2022-12-10T07:30:42;-3.90;99.90
9383;DHT22;4731;49.708;10.816;2022-12-10T07:33:09;-3.80;99.90
9383;DHT22;4731;49.708;10.816;2022-12-10T07:35:39;-3.70;99.90
9383;DHT22;4731;49.708;10.816;2022-12-10T07:38:06;-3.70;99.90
9383;DHT22;4731;49.708;10.816;2022-12-10T07:40:35;-3.60;99.90
9383;DHT22;4731;49.708;10.816;2022-12-10T07:43:03;-3.60;99.90
9383;DHT22;4731;49.708;10.816;2022-12-10T07:45:30;-3.60;99.90
9383;DHT22;4731;49.708;10.816;2022-12-10T07:50:24;-3.50;99.90
9383;DHT22;4731;49.708;10.816;2022-12-10T07:52:50;-3.30;99.90
9383;DHT22;4731;49.708;10.816;2022-12-10T07:55:17;-3.00;99.90
9383;DHT22;4731;49.708;10.816;2022-12-10T07:57:46;-2.80;99.90
9383;DHT22;4731;49.708;10.816;2022-12-10T08:00:17;-2.60;99.90
9383;DHT22;4731;49.708;10.816;2022-12-10T08:02:44;-2.30;99.90
9383;DHT22;4731;49.708;10.816;2022-12-10T08:05:11;-2.30;99.90
9383;DHT22;4731;49.708;10.816;2022-12-10T08:07:40;-2.40;99.90
9383;DHT22;4731;49.708;10.816;2022-12-10T08:10:07;-2.40;99.90
9383;DHT22;4731;49.708;10.816;2022-12-10T08:12:35;-2.90;99.90
9383;DHT22;4731;49.708;10.816;2022-12-10T08:15:02;-2.90;99.90
9383;DHT22;4731;49.708;10.816;2022-12-10T08:17:31;-2.90;99.90
9383;DHT22;4731;49.708;10.816;2022-12-10T08:19:58;-2.80;99.90
9383;DHT22;4731;49.708;10.816;2022-12-10T08:22:26;-2.70;99.90
9383;DHT22;4731;49.708;10.816;2022-12-10T08:24:53;-2.80;99.90
9383;DHT22;4731;49.708;10.816;2022-12-10T08:27:19;-2.70;99.90
9383;DHT22;4731;49.708;10.816;2022-12-10T08:29:46;-2.60;99.90
9383;DHT22;4731;49.708;10.816;2022-12-10T08:32:13;-1.90;99.90
9383;DHT22;4731;49.708;10.816;2022-12-10T08:34:41;-2.50;99.90
9383;DHT22;4731;49.708;10.816;2022-12-10T08:37:08;-2.50;99.90
9383;DHT22;4731;49.708;10.816;2022-12-10T08:39:35;-2.40;99.90
9383;DHT22;4731;49.708;10.816;2022-12-10T08:42:02;-2.20;99.90
9383;DHT22;4731;49.708;10.816;2022-12-10T08:44:29;-2.10;99.90
9383;DHT22;4731;49.708;10.816;2022-12-10T08:46:56;-2.00;99.90
9383;DHT22;4731;49.708;10.816;2022-12-10T08:49:22;-1.90;99.90
9383;DHT22;4731;49.708;10.816;2022-12-10T08:51:51;-1.90;99.90
9383;DHT22;4731;49.708;10.816;2022-12-10T08:54:17;-1.80;99.90
9383;DHT22;4731;49.708;10.816;2022-12-10T08:56:44;-1.80;99.90
9383;DHT22;4731;49.708;10.816;2022-12-10T08:59:11;-1.70;99.90
9383;DHT22;4731;49.708;10.816;2022-12-10T09:01:38;-1.60;99.90
9383;DHT22;4731;49.708;10.816;2022-12-10T09:04:06;-1.50;99.90
9383;DHT22;4731;49.708;10.816;2022-12-10T09:06:33;-1.40;99.90
9383;DHT22;4731;49.708;10.816;2022-12-10T09:09:02;-1.20;99.90
9383;DHT22;4731;49.708;10.816;2022-12-10T09:11:32;-1.20;99.90
9383;DHT22;4731;49.708;10.816;2022-12-10T09:13:59;-1.20;99.90
9383;DHT22;4731;49.708;10.816;2022-12-10T09:16:30;-1.10;99.90
9383;DHT22;4731;49.708;10.816;2022-12-10T09:18:58;-1.20;99.90
9383;DHT22;4731;49.708;10.816;2022-12-10T09:21:31;-1.00;99.90
9383;DHT22;4731;49.708;10.816;2022-12-10T09:23:58;-0.90;99.90
9383;DHT22;4731;49.708;10.816;2022-12-10T09:26:31;-0.80;99.90
9383;DHT22;4731;49.708;10.816;2022-12-10T09:28:59;-0.70;99.90
9383;DHT22;4731;49.708;10.816;2022-12-10T09:31:26;-0.50;99.90
9383;DHT22;4731;49.708;10.816;2022-12-10T09:33:54;-0.50;99.90
9383;DHT22;4731;49.708;10.816;2022-12-10T09:36:22;-0.60;99.90
9383;DHT22;4731;49.708;10.816;2022-12-10T09:38:49;-0.50;99.90
9383;DHT22;4731;49.708;10.816;2022-12-10T09:41:35;-0.40;99.90
9383;DHT22;4731;49.708;10.816;2022-12-10T09:44:19;-0.50;99.90
9383;DHT22;4731;49.708;10.816;2022-12-10T09:46:51;1.00;99.90
9383;DHT22;4731;49.708;10.816;2022-12-10T09:49:33;0.50;99.90
9383;DHT22;4731;49.708;10.816;2022-12-10T09:52:09;-0.30;99.90
9383;DHT22;4731;49.708;10.816;2022-12-10T09:54:43;-0.20;99.90
9383;DHT22;4731;49.708;10.816;2022-12-10T09:57:19;-0.10;99.90
9383;DHT22;4731;49.708;10.816;2022-12-10T09:59:49;0.00;99.90
9383;DHT22;4731;49.708;10.816;2022-12-10T10:02:21;0.70;99.90
9383;DHT22;4731;49.708;10.816;2022-12-10T10:04:51;0.20;99.90
9383;DHT22;4731;49.708;10.816;2022-12-10T10:07:21;0.20;99.90
9383;DHT22;4731;49.708;10.816;2022-12-10T10:09:56;0.20;99.90
9383;DHT22;4731;49.708;10.816;2022-12-10T10:12:27;0.30;99.90
9383;DHT22;4731;49.708;10.816;2022-12-10T10:14:55;0.40;99.90
9383;DHT22;4731;49.708;10.816;2022-12-10T10:17:27;2.90;99.90
9383;DHT22;4731;49.708;10.816;2022-12-10T10:19:55;2.60;99.90
9383;DHT22;4731;49.708;10.816;2022-12-10T10:22:22;2.70;99.90
9383;DHT22;4731;49.708;10.816;2022-12-10T10:24:50;1.10;99.90
9383;DHT22;4731;49.708;10.816;2022-12-10T10:27:20;1.20;99.90
9383;DHT22;4731;49.708;10.816;2022-12-10T10:29:50;1.40;99.90
9383;DHT22;4731;49.708;10.816;2022-12-10T10:32:18;3.50;99.90
9383;DHT22;4731;49.708;10.816;2022-12-10T10:34:52;1.30;99.90
9383;DHT22;4731;49.708;10.816;2022-12-10T10:37:23;1.40;99.90
9383;DHT22;4731;49.708;10.816;2022-12-10T10:39:52;1.40;99.90
9383;DHT22;4731;49.708;10.816;2022-12-10T10:42:27;1.30;99.90
9383;DHT22;4731;49.708;10.816;2022-12-10T10:44:56;1.30;99.90
9383;DHT22;4731;49.708;10.816;2022-12-10T10:47:30;1.30;99.90
9383;DHT22;4731;49.708;10.816;2022-12-10T10:52:29;1.20;99.90
9383;DHT22;4731;49.708;10.816;2022-12-10T10:54:56;0.60;99.90
9383;DHT22;4731;49.708;10.816;2022-12-10T10:57:27;0.80;99.90
9383;DHT22;4731;49.708;10.816;2022-12-10T11:00:02;0.30;99.90
9383;DHT22;4731;49.708;10.816;2022-12-10T11:02:32;0.30;99.90
9383;DHT22;4731;49.708;10.816;2022-12-10T11:05:05;0.50;99.90
9383;DHT22;4731;49.708;10.816;2022-12-10T11:07:35;0.60;99.90
9383;DHT22;4731;49.708;10.816;2022-12-10T11:10:16;0.90;99.90
9383;DHT22;4731;49.708;10.816;2022-12-10T11:12:54;1.10;99.90
9383;DHT22;4731;49.708;10.816;2022-12-10T11:15:32;1.30;99.90
9383;DHT22;4731;49.708;10.816;2022-12-10T11:18:00;2.20;99.90
9383;DHT22;4731;49.708;10.816;2022-12-10T11:20:30;1.60;99.90
9383;DHT22;4731;49.708;10.816;2022-12-10T11:22:58;1.70;99.90
9383;DHT22;4731;49.708;10.816;2022-12-10T11:25:35;1.70;99.90
9383;DHT22;4731;49.708;10.816;2022-12-10T11:28:12;1.60;99.90
9383;DHT22;4731;49.708;10.816;2022-12-10T11:30:54;1.20;99.90
9383;DHT22;4731;49.708;10.816;2022-12-10T11:33:29;4.10;99.90
9383;DHT22;4731;49.708;10.816;2022-12-10T11:36:05;1.30;99.90
9383;DHT22;4731;49.708;10.816;2022-12-10T11:38:42;2.50;99.90
9383;DHT22;4731;49.708;10.816;2022-12-10T11:41:17;1.40;99.90
9383;DHT22;4731;49.708;10.816;2022-12-10T11:43:57;1.50;99.90
9383;DHT22;4731;49.708;10.816;2022-12-10T11:46:51;1.80;99.90
9383;DHT22;4731;49.708;10.816;2022-12-10T11:49:26;2.00;99.90
9383;DHT22;4731;49.708;10.816;2022-12-10T11:52:01;2.00;99.90
9383;DHT22;4731;49.708;10.816;2022-12-10T11:54:45;2.10;99.90
9383;DHT22;4731;49.708;10.816;2022-12-10T11:57:22;5.60;99.90
9383;DHT22;4731;49.708;10.816;2022-12-10T11:59:58;1.90;99.90
9383;DHT22;4731;49.708;10.816;2022-12-10T12:02:53;1.80;99.90
9383;DHT22;4731;49.708;10.816;2022-12-10T12:05:48;1.80;99.90
9383;DHT22;4731;49.708;10.816;2022-12-10T12:08:23;1.80;99.90
9383;DHT22;4731;49.708;10.816;2022-12-10T12:11:14;4.00;99.90
9383;DHT22;4731;49.708;10.816;2022-12-10T12:13:51;2.00;99.90
9383;DHT22;4731;49.708;10.816;2022-12-10T12:16:23;2.10;99.90
9383;DHT22;4731;49.708;10.816;2022-12-10T12:19:01;2.20;99.90
9383;DHT22;4731;49.708;10.816;2022-12-10T12:21:33;2.20;99.90
9383;DHT22;4731;49.708;10.816;2022-12-10T12:24:04;2.20;99.90
9383;DHT22;4731;49.708;10.816;2022-12-10T12:26:37;2.20;99.90
9383;DHT22;4731;49.708;10.816;2022-12-10T12:29:13;2.30;99.90
9383;DHT22;4731;49.708;10.816;2022-12-10T12:31:46;2.50;99.90
9383;DHT22;4731;49.708;10.816;2022-12-10T12:34:23;2.70;99.90
9383;DHT22;4731;49.708;10.816;2022-12-10T12:37:01;2.80;99.90
9383;DHT22;4731;49.708;10.816;2022-12-10T12:39:34;2.70;99.90
9383;DHT22;4731;49.708;10.816;2022-12-10T12:42:13;2.70;99.90
9383;DHT22;4731;49.708;10.816;2022-12-10T12:44:55;2.50;99.90
9383;DHT22;4731;49.708;10.816;2022-12-10T12:47:32;2.60;99.90
9383;DHT22;4731;49.708;10.816;2022-12-10T12:50:04;2.30;99.90
9383;DHT22;4731;49.708;10.816;2022-12-10T12:52:37;2.10;99.90
9383;DHT22;4731;49.708;10.816;2022-12-10T12:55:16;2.10;99.90
9383;DHT22;4731;49.708;10.816;2022-12-10T12:57:48;5.70;99.90
9383;DHT22;4731;49.708;10.816;2022-12-10T13:00:18;4.60;99.90
9383;DHT22;4731;49.708;10.816;2022-12-10T13:02:58;2.10;99.90
9383;DHT22;4731;49.708;10.816;2022-12-10T13:05:31;2.30;99.90
9383;DHT22;4731;49.708;10.816;2022-12-10T13:08:25;2.20;99.90
9383;DHT22;4731;49.708;10.816;2022-12-10T13:10:58;2.40;99.90
9383;DHT22;4731;49.708;10.816;2022-12-10T13:13:29;2.50;99.90
9383;DHT22;4731;49.708;10.816;2022-12-10T13:19:26;2.40;99.90
9383;DHT22;4731;49.708;10.816;2022-12-10T13:22:00;2.30;99.90
9383;DHT22;4731;49.708;10.816;2022-12-10T13:25:04;5.00;99.90
9383;DHT22;4731;49.708;10.816;2022-12-10T13:27:33;2.30;99.90
9383;DHT22;4731;49.708;10.816;2022-12-10T13:30:03;5.30;99.90
9383;DHT22;4731;49.708;10.816;2022-12-10T13:32:46;2.10;99.90
9383;DHT22;4731;49.708;10.816;2022-12-10T13:35:27;2.20;99.90
9383;DHT22;4731;49.708;10.816;2022-12-10T13:37:59;1.90;99.90
9383;DHT22;4731;49.708;10.816;2022-12-10T13:40:40;1.80;99.90
9383;DHT22;4731;49.708;10.816;2022-12-10T13:43:27;1.80;99.90
9383;DHT22;4731;49.708;10.816;2022-12-10T13:46:27;3.10;99.90
9383;DHT22;4731;49.708;10.816;2022-12-10T13:48:57;1.70;99.90
9383;DHT22;4731;49.708;10.816;2022-12-10T13:51:52;2.40;99.90
9383;DHT22;4731;49.708;10.816;2022-12-10T13:58:08;1.60;99.90
9383;DHT22;4731;49.708;10.816;2022-12-10T14:00:47;1.70;99.90
9383;DHT22;4731;49.708;10.816;2022-12-10T14:03:46;1.70;99.90
9383;DHT22;4731;49.708;10.816;2022-12-10T14:06:17;4.10;99.90
9383;DHT22;4731;49.708;10.816;2022-12-10T14:09:00;2.50;99.90
9383;DHT22;4731;49.708;10.816;2022-12-10T14:11:31;4.10;99.90
9383;DHT22;4731;49.708;10.816;2022-12-10T14:14:02;1.70;99.90
9383;DHT22;4731;49.708;10.816;2022-12-10T14:16:32;3.90;99.90
9383;DHT22;4731;49.708;10.816;2022-12-10T14:19:04;1.60;99.90
9383;DHT22;4731;49.708;10.816;2022-12-10T14:21:33;1.50;99.90
9383;DHT22;4731;49.708;10.816;2022-12-10T14:24:01;1.50;99.90
9383;DHT22;4731;49.708;10.816;2022-12-10T14:26:30;1.40;99.90
9383;DHT22;4731;49.708;10.816;2022-12-10T14:29:11;1.30;99.90
9383;DHT22;4731;49.708;10.816;2022-12-10T14:31:47;1.20;99.90
9383;DHT22;4731;49.708;10.816;2022-12-10T14:34:20;1.20;99.90
9383;DHT22;4731;49.708;10.816;2022-12-10T14:36:50;1.20;99.90
9383;DHT22;4731;49.708;10.816;2022-12-10T14:39:20;1.10;99.90
9383;DHT22;4731;49.708;10.816;2022-12-10T14:41:51;0.90;99.90
9383;DHT22;4731;49.708;10.816;2022-12-10T14:44:24;0.90;99.90
9383;DHT22;4731;49.708;10.816;2022-12-10T14:46:52;0.80;99.90
9383;DHT22;4731;49.708;10.816;2022-12-10T14:49:29;0.80;99.90
9383;DHT22;4731;49.708;10.816;2022-12-10T14:51:56;0.70;99.90
9383;DHT22;4731;49.708;10.816;2022-12-10T14:54:26;0.70;99.90
9383;DHT22;4731;49.708;10.816;2022-12-10T14:56:54;0.80;99.90
9383;DHT22;4731;49.708;10.816;2022-12-10T14:59:26;0.70;99.90
9383;DHT22;4731;49.708;10.816;2022-12-10T15:02:01;1.90;99.90
9383;DHT22;4731;49.708;10.816;2022-12-10T15:04:40;0.70;99.90
9383;DHT22;4731;49.708;10.816;2022-12-10T15:07:11;0.70;99.90
9383;DHT22;4731;49.708;10.816;2022-12-10T15:09:39;0.70;99.90
9383;DHT22;4731;49.708;10.816;2022-12-10T15:12:28;2.70;99.90
9383;DHT22;4731;49.708;10.816;2022-12-10T15:15:02;0.70;99.90
9383;DHT22;4731;49.708;10.816;2022-12-10T15:17:40;0.70;99.90
9383;DHT22;4731;49.708;10.816;2022-12-10T15:20:23;0.70;99.90
9383;DHT22;4731;49.708;10.816;2022-12-10T15:22:54;0.70;99.90
9383;DHT22;4731;49.708;10.816;2022-12-10T15:25:49;0.60;99.90
9383;DHT22;4731;49.708;10.816;2022-12-10T15:28:25;0.50;99.90
9383;DHT22;4731;49.708;10.816;2022-12-10T15:30:56;0.40;99.90
9383;DHT22;4731;49.708;10.816;2022-12-10T15:33:31;0.40;99.90
9383;DHT22;4731;49.708;10.816;2022-12-10T15:36:00;0.40;99.90
9383;DHT22;4731;49.708;10.816;2022-12-10T15:38:27;0.40;99.90
9383;DHT22;4731;49.708;10.816;2022-12-10T15:40:58;0.40;99.90
9383;DHT22;4731;49.708;10.816;2022-12-10T15:43:27;0.20;99.90
9383;DHT22;4731;49.708;10.816;2022-12-10T15:45:57;0.40;99.90
9383;DHT22;4731;49.708;10.816;2022-12-10T15:48:29;-0.10;99.90
9383;DHT22;4731;49.708;10.816;2022-12-10T15:51:00;0.30;99.90
9383;DHT22;4731;49.708;10.816;2022-12-10T15:53:34;0.40;99.90
9383;DHT22;4731;49.708;10.816;2022-12-10T15:56:02;0.40;99.90
9383;DHT22;4731;49.708;10.816;2022-12-10T15:58:29;0.40;99.90
9383;DHT22;4731;49.708;10.816;2022-12-10T16:03:27;0.40;99.90
9383;DHT22;4731;49.708;10.816;2022-12-10T16:05:55;0.40;99.90
9383;DHT22;4731;49.708;10.816;2022-12-10T16:08:23;0.40;99.90
9383;DHT22;4731;49.708;10.816;2022-12-10T16:10:54;0.40;99.90
9383;DHT22;4731;49.708;10.816;2022-12-10T16:13:24;1.00;99.90
9383;DHT22;4731;49.708;10.816;2022-12-10T16:15:54;0.50;99.90
9383;DHT22;4731;49.708;10.816;2022-12-10T16:18:23;0.50;99.90
9383;DHT22;4731;49.708;10.816;2022-12-10T16:20:50;4.30;99.90
9383;DHT22;4731;49.708;10.816;2022-12-10T16:23:17;0.50;99.90
9383;DHT22;4731;49.708;10.816;2022-12-10T16:25:45;0.50;99.90
9383;DHT22;4731;49.708;10.816;2022-12-10T16:28:13;0.50;99.90
9383;DHT22;4731;49.708;10.816;2022-12-10T16:30:42;0.50;99.90
9383;DHT22;4731;49.708;10.816;2022-12-10T16:33:10;0.50;99.90
9383;DHT22;4731;49.708;10.816;2022-12-10T16:38:06;0.60;99.90
9383;DHT22;4731;49.708;10.816;2022-12-10T16:40:33;0.60;99.90
9383;DHT22;4731;49.708;10.816;2022-12-10T16:43:00;0.50;99.90